Time;durP1;ratioP1;P1;durP2;ratioP2;P2;SDS_P1;SDS_P2;PMS_P1;PMS_P2;Temp;Humidity;BMP_temperature;BMP_pressure;BME280_temperature;BME280_humidity;BME280_pressure;Samples;Min_cycle;Max_cycle;Signal;HPM_P1;HPM_P2
2020/12/06 00:01:03;;;;;;;16.15;4.93;;;16.00;99.90;;;;;;4952110;28;20481;-73
2020/12/06 00:03:31;;;;;;;28.13;5.30;;;16.00;99.90;;;;;;4964997;28;20048;-72
2020/12/06 00:05:57;;;;;;;21.85;5.15;;;16.00;99.90;;;;;;4953090;28;20045;-72
2020/12/06 00:08:23;;;;;;;24.00;5.43;;;16.10;99.90;;;;;;4964268;28;20023;-73
2020/12/06 00:10:48;;;;;;;19.25;5.32;;;16.10;99.90;;;;;;4957515;28;20059;-72
2020/12/06 00:13:14;;;;;;;16.40;4.47;;;16.10;99.90;;;;;;4957728;28;20018;-73
2020/12/06 00:15:40;;;;;;;22.52;4.75;;;16.10;99.90;;;;;;4951802;28;20019;-72
2020/12/06 00:18:06;;;;;;;19.70;4.80;;;16.10;99.90;;;;;;4968344;28;20057;-73
2020/12/06 00:20:32;;;;;;;18.13;5.07;;;16.10;99.90;;;;;;4941575;29;20035;-73
2020/12/06 00:22:59;;;;;;;14.20;4.82;;;16.10;99.90;;;;;;4946592;29;20043;-73
2020/12/06 00:25:25;;;;;;;18.10;3.90;;;16.10;99.90;;;;;;4958803;28;20026;-73
2020/12/06 00:27:51;;;;;;;17.85;5.97;;;16.10;99.90;;;;;;4963443;28;20560;-73
2020/12/06 00:30:17;;;;;;;15.23;4.20;;;16.10;99.90;;;;;;4960375;28;20063;-73
2020/12/06 00:32:43;;;;;;;20.58;4.55;;;16.10;99.90;;;;;;4957642;28;20074;-73
2020/12/06 00:35:09;;;;;;;14.65;4.57;;;16.10;99.90;;;;;;4949583;28;20392;-73
2020/12/06 00:37:39;;;;;;;27.30;5.07;;;16.10;99.90;;;;;;4959416;28;20023;-72
2020/12/06 00:40:07;;;;;;;17.48;5.18;;;16.10;99.90;;;;;;4958443;28;20442;-73
2020/12/06 00:42:34;;;;;;;14.20;3.88;;;16.10;99.90;;;;;;4968913;28;20485;-73
2020/12/06 00:45:00;;;;;;;21.52;5.47;;;16.10;99.90;;;;;;4958952;28;20035;-73
2020/12/06 00:47:26;;;;;;;18.85;4.82;;;16.10;99.90;;;;;;4959420;28;20027;-73
2020/12/06 00:49:52;;;;;;;18.77;4.35;;;16.10;99.90;;;;;;4955834;28;20497;-72
2020/12/06 00:52:18;;;;;;;26.25;4.90;;;16.10;99.90;;;;;;4959445;28;20537;-73
2020/12/06 00:54:44;;;;;;;15.52;4.82;;;16.10;99.90;;;;;;4954806;29;20031;-72
2020/12/06 00:57:10;;;;;;;19.45;5.47;;;16.10;99.90;;;;;;4958431;28;20030;-73
2020/12/06 00:59:36;;;;;;;19.25;4.53;;;16.10;99.90;;;;;;4949226;29;20031;-73
2020/12/06 01:02:05;;;;;;;19.13;4.70;;;16.20;99.90;;;;;;4961935;28;20034;-73
2020/12/06 01:04:30;;;;;;;25.17;4.78;;;16.20;99.90;;;;;;4961882;28;20023;-72
2020/12/06 01:07:00;;;;;;;22.02;4.20;;;16.10;99.90;;;;;;4955345;28;20107;-73
2020/12/06 01:09:26;;;;;;;14.15;4.15;;;16.20;99.90;;;;;;4961956;28;20458;-73
2020/12/06 01:11:52;;;;;;;22.58;4.65;;;16.20;99.90;;;;;;4959675;28;20019;-73
2020/12/06 01:14:18;;;;;;;25.63;5.30;;;16.20;99.90;;;;;;4961333;28;20080;-73
2020/12/06 01:16:48;;;;;;;29.80;6.57;;;16.20;99.90;;;;;;4961296;28;20019;-73
2020/12/06 01:19:14;;;;;;;28.25;5.18;;;16.30;99.90;;;;;;4961838;28;20038;-73
2020/12/06 01:21:40;;;;;;;21.13;4.57;;;16.20;99.90;;;;;;4955550;28;20062;-73
2020/12/06 01:24:06;;;;;;;29.63;5.30;;;16.20;99.90;;;;;;4955344;28;20051;-73
2020/12/06 01:26:32;;;;;;;20.85;5.47;;;16.30;99.90;;;;;;4957274;28;20023;-73
2020/12/06 01:28:58;;;;;;;26.27;4.90;;;16.30;99.90;;;;;;4954402;28;20047;-73
2020/12/06 01:31:24;;;;;;;19.10;4.20;;;16.30;99.90;;;;;;4956909;28;20027;-73
2020/12/06 01:33:50;;;;;;;31.20;5.88;;;16.30;99.90;;;;;;4961942;28;20030;-73
2020/12/06 01:36:16;;;;;;;19.75;6.43;;;16.30;99.90;;;;;;4936850;29;20036;-73
2020/12/06 01:38:42;;;;;;;20.20;6.75;;;16.30;99.90;;;;;;4958810;28;20085;-73
2020/12/06 01:41:08;;;;;;;26.17;4.40;;;16.30;99.90;;;;;;4956109;28;20034;-72
2020/12/06 01:43:34;;;;;;;27.33;5.57;;;16.40;99.90;;;;;;4945294;28;20113;-73
2020/12/06 01:46:00;;;;;;;16.02;4.20;;;16.30;99.90;;;;;;4938336;29;20042;-73
2020/12/06 01:48:25;;;;;;;25.95;5.40;;;16.40;99.90;;;;;;4962594;28;20082;-73
2020/12/06 01:50:51;;;;;;;23.30;4.60;;;16.40;99.90;;;;;;4951620;29;20066;-72
2020/12/06 01:53:17;;;;;;;20.60;5.15;;;16.30;99.90;;;;;;4961165;28;20103;-73
2020/12/06 01:55:45;;;;;;;18.40;4.68;;;16.40;99.90;;;;;;4957165;28;20500;-72
2020/12/06 01:58:11;;;;;;;19.23;4.30;;;16.40;99.90;;;;;;4960045;28;20089;-73
2020/12/06 02:00:37;;;;;;;22.02;4.72;;;16.30;99.90;;;;;;4946805;28;20528;-73
2020/12/06 02:03:04;;;;;;;17.13;5.47;;;16.30;99.90;;;;;;4962159;28;20034;-73
2020/12/06 02:05:32;;;;;;;27.80;4.72;;;16.30;99.90;;;;;;4964504;29;20026;-73
2020/12/06 02:07:58;;;;;;;31.65;4.55;;;16.30;99.90;;;;;;4960412;28;20026;-73
2020/12/06 02:10:29;;;;;;;17.98;6.07;;;16.30;99.90;;;;;;4959063;28;20117;-73
2020/12/06 02:12:55;;;;;;;19.15;7.28;;;16.40;99.90;;;;;;4957594;28;20029;-72
2020/12/06 02:15:22;;;;;;;26.65;4.53;;;16.30;99.90;;;;;;4960313;28;20037;-73
2020/12/06 02:17:48;;;;;;;21.40;4.82;;;16.30;99.90;;;;;;4962491;28;20035;-72
2020/12/06 02:20:15;;;;;;;18.73;5.35;;;16.30;99.90;;;;;;4953954;28;20027;-73
2020/12/06 02:22:41;;;;;;;21.48;5.95;;;16.30;99.90;;;;;;4944148;28;20026;-73
2020/12/06 02:25:07;;;;;;;28.20;5.20;;;16.40;99.90;;;;;;4953070;28;20106;-72
2020/12/06 02:27:33;;;;;;;21.30;6.95;;;16.40;99.90;;;;;;4970745;28;20146;-72
2020/12/06 02:29:59;;;;;;;17.70;4.05;;;16.40;99.90;;;;;;4957632;28;20039;-72
2020/12/06 02:32:24;;;;;;;13.38;4.50;;;16.30;99.90;;;;;;4964886;28;20077;-73
2020/12/06 02:34:50;;;;;;;24.13;5.10;;;16.30;99.90;;;;;;4942787;28;20059;-73
2020/12/06 02:37:16;;;;;;;17.25;5.35;;;16.30;99.90;;;;;;4963713;28;20092;-73
2020/12/06 02:39:43;;;;;;;27.13;5.30;;;16.30;99.90;;;;;;4969127;28;20030;-73
2020/12/06 02:42:12;;;;;;;19.85;5.35;;;16.30;99.90;;;;;;4961037;28;20035;-73
2020/12/06 02:44:38;;;;;;;15.90;7.30;;;16.30;99.90;;;;;;4949558;28;20039;-73
2020/12/06 02:47:04;;;;;;;22.55;4.80;;;16.30;99.90;;;;;;4956679;28;20031;-73
2020/12/06 02:49:29;;;;;;;24.33;5.85;;;16.30;99.90;;;;;;4961759;28;20027;-73
2020/12/06 02:51:55;;;;;;;23.52;4.90;;;16.30;99.90;;;;;;4963143;28;20024;-73
2020/12/06 02:54:22;;;;;;;18.52;5.10;;;16.40;99.90;;;;;;4955433;28;20102;-73
2020/12/06 02:56:47;;;;;;;21.70;4.70;;;16.30;99.90;;;;;;4968926;28;20114;-73
2020/12/06 02:59:13;;;;;;;16.67;4.18;;;16.30;99.90;;;;;;4956832;28;20062;-73
2020/12/06 03:01:39;;;;;;;15.35;3.95;;;16.40;99.90;;;;;;4943673;29;20035;-73
2020/12/06 03:04:05;;;;;;;27.13;5.30;;;16.40;99.90;;;;;;4965644;28;20602;-74
2020/12/06 03:06:31;;;;;;;15.27;4.22;;;16.40;99.90;;;;;;4944796;29;20172;-73
2020/12/06 03:08:57;;;;;;;24.65;4.53;;;16.40;99.90;;;;;;4954560;28;20063;-72
2020/12/06 03:11:27;;;;;;;19.33;5.18;;;16.40;99.90;;;;;;4960755;28;20030;-73
2020/12/06 03:13:54;;;;;;;30.15;5.53;;;16.40;99.90;;;;;;4963431;28;20030;-73
2020/12/06 03:16:20;;;;;;;30.80;6.13;;;16.40;99.90;;;;;;4960603;28;20031;-73
2020/12/06 03:18:46;;;;;;;29.35;4.97;;;16.40;99.90;;;;;;4966184;28;20109;-73
2020/12/06 03:21:12;;;;;;;19.75;5.55;;;16.30;99.90;;;;;;4957566;29;20525;-73
2020/12/06 03:23:38;;;;;;;16.85;4.28;;;16.30;99.90;;;;;;4939446;29;20030;-73
2020/12/06 03:26:04;;;;;;;16.63;4.25;;;16.40;99.90;;;;;;4941673;28;20027;-73
2020/12/06 03:28:30;;;;;;;17.63;5.20;;;16.40;99.90;;;;;;4963804;28;20122;-73
2020/12/06 03:30:59;;;;;;;27.92;5.32;;;16.50;99.90;;;;;;4942931;28;20035;-73
2020/12/06 03:33:25;;;;;;;22.30;5.97;;;16.40;99.90;;;;;;4959533;28;20389;-73
2020/12/06 03:35:51;;;;;;;22.42;4.00;;;16.50;99.90;;;;;;4946379;28;20027;-73
2020/12/06 03:38:17;;;;;;;17.05;4.47;;;16.40;99.90;;;;;;4966522;28;20506;-73
2020/12/06 03:40:43;;;;;;;23.30;4.93;;;16.50;99.90;;;;;;4959309;28;20039;-73
2020/12/06 03:43:09;;;;;;;19.30;3.92;;;16.50;99.90;;;;;;4939940;28;20035;-73
2020/12/06 03:45:35;;;;;;;25.65;5.28;;;16.50;99.90;;;;;;4960893;28;20063;-73
2020/12/06 03:48:01;;;;;;;24.58;3.83;;;16.50;99.90;;;;;;4963986;28;20063;-73
2020/12/06 03:50:27;;;;;;;13.93;4.13;;;16.60;99.90;;;;;;4952070;28;20106;-72
2020/12/06 03:52:53;;;;;;;22.23;4.68;;;16.60;99.90;;;;;;4955152;28;20027;-73
2020/12/06 03:55:19;;;;;;;21.60;5.32;;;16.60;99.90;;;;;;4959799;28;20371;-73
2020/12/06 03:57:45;;;;;;;16.65;4.22;;;16.60;99.90;;;;;;4944048;29;20443;-73
2020/12/06 04:00:11;;;;;;;16.90;5.18;;;16.60;99.90;;;;;;4956505;28;20050;-73
2020/12/06 04:02:36;;;;;;;21.05;5.30;;;16.60;99.90;;;;;;4957479;28;20046;-73
2020/12/06 04:05:03;;;;;;;22.55;4.35;;;16.60;99.90;;;;;;4953404;28;20042;-73
2020/12/06 04:07:29;;;;;;;31.38;5.88;;;16.70;99.90;;;;;;4964385;28;20035;-73
2020/12/06 04:09:55;;;;;;;25.17;6.57;;;16.70;99.90;;;;;;4947658;28;20485;-73
2020/12/06 04:12:21;;;;;;;25.45;5.60;;;16.70;99.90;;;;;;4963288;28;20031;-73
2020/12/06 04:14:47;;;;;;;14.90;3.80;;;16.70;99.90;;;;;;4955308;28;20090;-73
2020/12/06 04:17:13;;;;;;;22.70;5.07;;;16.80;99.90;;;;;;4963384;28;20027;-73
2020/12/06 04:19:39;;;;;;;23.75;5.50;;;16.80;99.90;;;;;;4949078;29;20504;-73
2020/12/06 04:22:08;;;;;;;26.65;6.35;;;16.70;99.90;;;;;;4959772;28;20039;-73
2020/12/06 04:24:34;;;;;;;32.25;6.32;;;16.70;99.90;;;;;;4961436;28;20027;-73
2020/12/06 04:27:00;;;;;;;18.80;5.15;;;16.70;99.90;;;;;;4956127;28;20068;-73
2020/12/06 04:29:27;;;;;;;18.55;5.45;;;16.80;99.90;;;;;;4966165;28;20089;-74
2020/12/06 04:31:53;;;;;;;23.73;5.35;;;16.80;99.90;;;;;;4931156;28;20024;-72
2020/12/06 04:34:19;;;;;;;17.98;5.20;;;16.80;99.90;;;;;;4952209;28;20066;-72
2020/12/06 04:36:45;;;;;;;28.40;5.95;;;16.80;99.90;;;;;;4964192;28;20102;-73
2020/12/06 04:39:11;;;;;;;21.15;6.10;;;16.80;99.90;;;;;;4967356;28;20038;-73
2020/12/06 04:41:37;;;;;;;21.30;4.93;;;16.80;99.90;;;;;;4963678;28;20019;-73
2020/12/06 04:44:03;;;;;;;19.00;5.40;;;16.80;99.90;;;;;;4941693;28;20049;-73
2020/12/06 04:46:36;;;;;;;28.20;5.15;;;16.80;99.90;;;;;;4956731;28;20115;-73
2020/12/06 04:49:05;;;;;;;18.33;4.50;;;16.80;99.90;;;;;;4955547;29;20027;-73
2020/12/06 04:51:41;;;;;;;24.17;4.63;;;16.80;99.90;;;;;;4960329;28;20023;-73
2020/12/06 04:54:07;;;;;;;20.45;4.57;;;16.90;99.90;;;;;;4957301;28;20474;-74
2020/12/06 04:56:36;;;;;;;20.00;4.45;;;16.80;99.90;;;;;;4962858;28;20049;-73
2020/12/06 04:59:03;;;;;;;22.63;6.13;;;16.80;99.90;;;;;;4957792;28;20086;-73
2020/12/06 05:01:36;;;;;;;20.02;4.97;;;16.80;99.90;;;;;;4957401;28;20027;-73
2020/12/06 05:04:27;;;;;;;19.92;6.50;;;16.80;99.90;;;;;;4954979;28;20062;-73
2020/12/06 05:06:54;;;;;;;15.88;5.28;;;16.80;99.90;;;;;;4958060;28;20094;-73
2020/12/06 05:09:28;;;;;;;24.92;6.97;;;16.80;99.90;;;;;;4969165;28;20057;-72
2020/12/06 05:11:54;;;;;;;19.15;5.43;;;16.80;99.90;;;;;;4957363;28;20023;-73
2020/12/06 05:14:20;;;;;;;34.33;5.00;;;16.80;99.90;;;;;;4952183;28;20385;-73
2020/12/06 05:16:47;;;;;;;23.13;5.05;;;16.90;99.90;;;;;;4956039;29;20023;-72
2020/12/06 05:19:13;;;;;;;23.98;5.45;;;16.80;99.90;;;;;;4954932;29;20031;-72
2020/12/06 05:21:44;;;;;;;34.13;4.85;;;16.70;99.90;;;;;;4954891;29;20074;-73
2020/12/06 05:24:10;;;;;;;15.05;4.47;;;16.80;99.90;;;;;;4941516;28;20486;-73
2020/12/06 05:26:36;;;;;;;17.63;4.38;;;16.80;99.90;;;;;;4964547;28;20026;-73
2020/12/06 05:29:04;;;;;;;29.40;4.85;;;16.70;99.90;;;;;;4951114;28;20051;-73
2020/12/06 05:31:30;;;;;;;20.95;5.55;;;16.70;99.90;;;;;;4961090;28;20119;-72
2020/12/06 05:33:56;;;;;;;23.75;4.90;;;16.70;99.90;;;;;;4955882;28;20031;-73
2020/12/06 05:36:22;;;;;;;24.38;5.22;;;16.70;99.90;;;;;;4966691;28;20023;-73
2020/12/06 05:38:49;;;;;;;22.98;5.85;;;16.60;99.90;;;;;;4945095;29;20023;-73
2020/12/06 05:41:15;;;;;;;16.80;3.92;;;16.60;99.90;;;;;;4958144;28;20031;-73
2020/12/06 05:43:44;;;;;;;21.00;5.15;;;16.60;99.90;;;;;;4955343;28;20038;-73
2020/12/06 05:46:19;;;;;;;19.10;4.78;;;16.60;99.90;;;;;;4960707;28;20035;-73
2020/12/06 05:48:46;;;;;;;21.73;5.03;;;16.60;99.90;;;;;;4965080;28;20371;-73
2020/12/06 05:51:14;;;;;;;23.08;5.32;;;16.60;99.90;;;;;;4958361;28;20027;-73
2020/12/06 05:53:43;;;;;;;29.88;6.20;;;16.60;99.90;;;;;;4957571;29;20097;-74
2020/12/06 05:56:13;;;;;;;27.77;4.88;;;16.60;99.90;;;;;;4964288;28;20031;-73
2020/12/06 05:58:44;;;;;;;24.65;5.85;;;16.70;99.90;;;;;;4955682;29;20023;-73
2020/12/06 06:01:15;;;;;;;27.58;7.18;;;16.70;99.90;;;;;;4948592;28;20030;-72
2020/12/06 06:03:52;;;;;;;20.08;5.30;;;16.60;99.90;;;;;;4946943;28;20037;-74
2020/12/06 06:06:26;;;;;;;18.27;5.30;;;16.50;99.90;;;;;;4958112;28;20023;-73
2020/12/06 06:08:54;;;;;;;17.23;4.90;;;16.40;99.90;;;;;;4965966;28;20038;-73
2020/12/06 06:11:24;;;;;;;21.58;5.20;;;16.30;99.90;;;;;;4960170;28;20029;-73
2020/12/06 06:14:11;;;;;;;13.77;3.85;;;16.20;99.90;;;;;;4964286;28;20368;-73
2020/12/06 06:16:37;;;;;;;31.17;5.80;;;16.10;99.90;;;;;;4954457;29;20103;-73
2020/12/06 06:19:04;;;;;;;30.83;5.53;;;15.90;99.90;;;;;;4957273;28;20035;-73
2020/12/06 06:21:42;;;;;;;19.98;4.90;;;15.90;99.90;;;;;;4957833;29;20094;-73
2020/12/06 06:24:14;;;;;;;17.50;5.03;;;15.80;99.90;;;;;;4960191;28;20027;-73
2020/12/06 06:26:41;;;;;;;;;;;15.70;99.90;;;;;;4940365;29;20126;-72
2020/12/06 06:29:14;;;;;;;16.02;4.43;;;15.60;99.90;;;;;;4967784;28;19917;-73
2020/12/06 06:31:41;;;;;;;24.98;5.18;;;15.50;99.90;;;;;;4954838;29;20030;-73
2020/12/06 06:34:07;;;;;;;14.07;3.92;;;15.50;99.90;;;;;;4938026;29;20391;-73
2020/12/06 06:36:35;;;;;;;18.75;5.32;;;15.40;99.90;;;;;;4968298;28;20049;-74
2020/12/06 06:39:03;;;;;;;19.70;6.57;;;15.30;99.90;;;;;;4948503;28;20038;-74
2020/12/06 06:41:29;;;;;;;13.18;5.32;;;15.20;99.90;;;;;;4947191;29;20560;-77
2020/12/06 06:44:03;;;;;;;18.63;4.53;;;15.20;99.90;;;;;;4957401;29;20035;-74
2020/12/06 06:46:33;;;;;;;18.65;4.43;;;15.20;99.90;;;;;;4957427;29;20370;-74
2020/12/06 06:49:08;;;;;;;18.35;5.18;;;15.10;99.90;;;;;;4939988;29;20041;-74
2020/12/06 06:51:34;;;;;;;19.55;4.60;;;15.00;99.90;;;;;;4938829;29;20083;-73
2020/12/06 06:54:08;;;;;;;23.48;6.60;;;14.80;99.90;;;;;;4941627;29;20047;-73
2020/12/06 06:56:50;;;;;;;17.92;4.78;;;14.80;99.90;;;;;;4946728;29;20016;-73
2020/12/06 06:59:31;;;;;;;20.77;4.55;;;14.70;99.90;;;;;;4941079;29;20028;-75
2020/12/06 07:01:57;;;;;;;20.13;4.82;;;14.70;99.90;;;;;;4959079;29;20031;-74
2020/12/06 07:04:23;;;;;;;19.45;5.80;;;14.50;99.90;;;;;;4940870;29;20029;-76
2020/12/06 07:06:53;;;;;;;23.73;4.78;;;14.60;99.90;;;;;;4958344;29;20043;-73
2020/12/06 07:09:24;;;;;;;10.32;4.32;;;14.60;99.90;;;;;;4958050;29;20027;-75
2020/12/06 07:11:52;;;;;;;12.90;3.90;;;14.50;99.90;;;;;;4958211;29;20086;-75
2020/12/06 07:14:23;;;;;;;14.88;3.97;;;14.40;99.90;;;;;;4958193;29;20369;-74
2020/12/06 07:16:58;;;;;;;8.10;1.77;;;14.40;99.90;;;;;;4958468;29;20024;-73
2020/12/06 07:19:24;;;;;;;11.52;2.65;;;14.10;99.90;;;;;;4958822;29;20031;-73
2020/12/06 07:21:51;;;;;;;7.88;2.97;;;13.80;99.90;;;;;;4957478;29;20023;-75
2020/12/06 07:24:18;;;;;;;7.20;2.40;;;13.70;99.90;;;;;;4958112;29;20498;-73
2020/12/06 07:26:46;;;;;;;10.77;1.92;;;13.60;99.90;;;;;;4957857;29;20050;-74
2020/12/06 07:29:12;;;;;;;5.95;2.97;;;13.50;99.90;;;;;;4957478;29;20090;-75
2020/12/06 07:31:38;;;;;;;10.20;4.68;;;13.40;99.90;;;;;;4939881;29;20027;-75
2020/12/06 07:34:05;;;;;;;10.88;2.30;;;13.40;99.90;;;;;;4960209;28;20082;-75
2020/12/06 07:36:35;;;;;;;8.55;1.80;;;13.50;99.90;;;;;;4978050;28;20089;-73
2020/12/06 07:39:21;;;;;;;9.48;2.00;;;13.50;99.90;;;;;;4965857;28;20378;-75
2020/12/06 07:41:50;;;;;;;2.85;1.52;;;13.50;99.90;;;;;;4941031;29;20038;-73
2020/12/06 07:44:17;;;;;;;10.52;3.45;;;13.30;99.90;;;;;;4956734;29;20033;-75
2020/12/06 07:46:43;;;;;;;5.22;1.77;;;13.30;99.90;;;;;;4964776;28;20023;-74
2020/12/06 07:49:09;;;;;;;3.00;1.60;;;13.30;99.90;;;;;;4955267;28;20035;-74
2020/12/06 07:51:36;;;;;;;6.40;1.67;;;13.20;99.90;;;;;;4949873;29;20595;-74
2020/12/06 07:54:03;;;;;;;4.03;1.58;;;13.30;99.90;;;;;;4957677;29;20027;-73
2020/12/06 07:56:29;;;;;;;5.50;2.53;;;13.20;99.90;;;;;;4939488;29;20232;-74
2020/12/06 07:59:17;;;;;;;6.78;2.17;;;13.20;99.90;;;;;;4941406;28;20487;-75
2020/12/06 08:01:44;;;;;;;4.65;2.35;;;13.20;99.90;;;;;;4968299;28;20023;-75
2020/12/06 08:04:14;;;;;;;5.28;1.55;;;13.20;99.90;;;;;;4968571;28;20024;-74
2020/12/06 08:06:44;;;;;;;5.60;1.92;;;13.30;99.90;;;;;;4949363;29;20506;-74
2020/12/06 08:09:12;;;;;;;6.22;1.40;;;13.30;99.90;;;;;;4936543;29;20091;-75
2020/12/06 08:11:43;;;;;;;3.05;0.70;;;13.40;99.90;;;;;;4946466;29;20027;-78
2020/12/06 08:14:10;;;;;;;1.35;0.60;;;13.30;99.90;;;;;;4936158;29;20110;-76
2020/12/06 08:16:36;;;;;;;1.75;0.63;;;13.20;99.90;;;;;;4943754;29;20081;-75
2020/12/06 08:19:03;;;;;;;1.45;0.65;;;13.10;99.90;;;;;;4954306;29;20421;-74
2020/12/06 08:21:41;;;;;;;0.82;0.43;;;13.10;99.90;;;;;;4953242;29;20398;-74
2020/12/06 08:24:21;;;;;;;1.15;0.50;;;13.00;99.90;;;;;;4953788;29;20039;-74
2020/12/06 08:26:48;;;;;;;0.40;0.40;;;13.00;99.90;;;;;;4963433;28;20042;-75
2020/12/06 08:29:14;;;;;;;4.50;0.65;;;13.00;99.90;;;;;;4937163;28;20063;-75
2020/12/06 08:31:42;;;;;;;0.80;0.65;;;13.00;99.90;;;;;;4951211;28;20437;-74
2020/12/06 08:34:13;;;;;;;1.63;0.70;;;13.00;99.90;;;;;;4939591;28;20122;-75
2020/12/06 08:36:39;;;;;;;3.40;0.93;;;13.10;99.90;;;;;;4956578;28;20023;-75
2020/12/06 08:39:21;;;;;;;2.28;0.68;;;13.20;99.90;;;;;;4958177;28;20116;-74
2020/12/06 08:41:48;;;;;;;1.00;0.43;;;13.10;99.90;;;;;;4951105;28;20023;-74
2020/12/06 08:44:14;;;;;;;0.50;0.32;;;13.20;99.90;;;;;;4973206;28;20035;-74
2020/12/06 08:46:50;;;;;;;0.30;0.30;;;13.30;99.90;;;;;;4965935;28;20031;-74
2020/12/06 08:49:18;;;;;;;1.20;0.30;;;13.30;99.90;;;;;;4955835;29;20026;-73
2020/12/06 08:51:48;;;;;;;0.45;0.30;;;13.40;99.90;;;;;;4955098;29;20474;-73
2020/12/06 08:54:14;;;;;;;0.32;0.32;;;13.50;99.90;;;;;;4955343;29;20441;-75
2020/12/06 08:56:42;;;;;;;1.38;1.27;;;13.50;99.90;;;;;;4954619;29;20436;-74
2020/12/06 08:59:08;;;;;;;1.10;0.60;;;13.50;99.90;;;;;;4954449;29;20415;-73
2020/12/06 09:01:55;;;;;;;1.30;0.50;;;13.60;99.90;;;;;;4937465;29;20023;-74
2020/12/06 09:04:22;;;;;;;0.70;0.70;;;13.70;99.90;;;;;;4937507;29;20027;-76
2020/12/06 09:06:50;;;;;;;2.45;0.90;;;13.80;99.90;;;;;;4954068;29;20028;-74
2020/12/06 09:09:16;;;;;;;0.98;0.70;;;13.80;99.90;;;;;;4955329;29;20371;-74
2020/12/06 09:11:42;;;;;;;0.50;0.50;;;13.80;99.90;;;;;;4954181;29;20086;-74
2020/12/06 09:14:08;;;;;;;0.50;0.50;;;13.90;99.90;;;;;;4955021;29;20019;-74
2020/12/06 09:16:37;;;;;;;0.95;0.77;;;13.80;99.90;;;;;;4937043;29;20038;-74
2020/12/06 09:19:03;;;;;;;3.70;1.63;;;13.80;99.90;;;;;;4952915;29;20027;-73
2020/12/06 09:21:28;;;;;;;1.27;0.90;;;13.80;99.90;;;;;;4953901;29;20434;-74
2020/12/06 09:23:54;;;;;;;2.15;1.33;;;13.70;99.90;;;;;;4954415;29;20438;-74
2020/12/06 09:26:20;;;;;;;2.78;1.23;;;13.80;99.90;;;;;;4954068;29;20031;-74
2020/12/06 09:28:46;;;;;;;3.00;2.58;;;13.80;99.90;;;;;;4937541;29;20042;-74
2020/12/06 09:31:12;;;;;;;5.18;2.03;;;13.90;99.90;;;;;;4960340;29;20032;-74
2020/12/06 09:33:38;;;;;;;5.28;2.00;;;14.00;99.90;;;;;;4948449;29;20026;-74
2020/12/06 09:36:04;;;;;;;11.90;3.75;;;14.00;99.90;;;;;;4958220;29;20016;-74
2020/12/06 09:38:30;;;;;;;12.55;3.78;;;14.00;99.90;;;;;;4954698;29;20071;-74
2020/12/06 09:40:56;;;;;;;13.32;3.35;;;14.00;99.90;;;;;;4954639;29;20031;-74
2020/12/06 09:43:23;;;;;;;10.73;2.22;;;14.10;99.90;;;;;;4954592;29;20036;-74
2020/12/06 09:45:48;;;;;;;9.05;2.22;;;14.10;99.90;;;;;;4953837;28;20320;-74
2020/12/06 09:48:14;;;;;;;17.10;6.20;;;14.20;99.90;;;;;;4937636;29;20456;-74
2020/12/06 09:50:40;;;;;;;10.90;3.13;;;14.20;99.90;;;;;;4931420;29;20387;-76
2020/12/06 09:53:06;;;;;;;14.32;3.58;;;14.30;99.90;;;;;;4950853;29;20368;-74
2020/12/06 09:55:32;;;;;;;17.02;3.67;;;14.40;99.90;;;;;;4954530;29;20043;-74
2020/12/06 09:57:58;;;;;;;18.38;4.75;;;14.40;99.90;;;;;;4954718;29;20019;-74
2020/12/06 10:00:24;;;;;;;17.25;3.80;;;14.40;99.90;;;;;;4954606;29;20042;-73
2020/12/06 10:02:50;;;;;;;11.90;3.72;;;14.50;99.90;;;;;;4954849;29;20101;-73
2020/12/06 10:05:16;;;;;;;13.00;3.78;;;14.50;99.90;;;;;;4954128;29;20131;-73
2020/12/06 10:07:41;;;;;;;13.70;3.63;;;14.50;99.90;;;;;;4954372;29;20027;-74
2020/12/06 10:10:08;;;;;;;14.48;3.22;;;14.50;99.90;;;;;;4954409;29;20030;-75
2020/12/06 10:12:35;;;;;;;9.40;2.78;;;14.60;99.90;;;;;;4954352;29;20474;-76
2020/12/06 10:15:01;;;;;;;17.92;5.07;;;14.60;99.90;;;;;;4954332;29;20039;-74
2020/12/06 10:17:26;;;;;;;8.95;3.20;;;14.60;99.90;;;;;;4954195;29;20123;-74
2020/12/06 10:19:53;;;;;;;7.38;2.50;;;14.50;99.90;;;;;;4954458;29;20497;-74
2020/12/06 10:22:18;;;;;;;11.77;2.17;;;14.40;99.90;;;;;;4953750;28;20027;-75
2020/12/06 10:24:44;;;;;;;8.80;3.00;;;14.30;99.90;;;;;;4956493;29;20027;-73
2020/12/06 10:27:10;;;;;;;6.30;2.72;;;14.20;99.90;;;;;;4955337;29;20042;-73
2020/12/06 10:29:36;;;;;;;6.57;2.22;;;14.10;99.90;;;;;;4955513;29;20478;-73
2020/12/06 10:32:02;;;;;;;5.65;2.20;;;14.00;99.90;;;;;;4955128;29;20500;-73
2020/12/06 10:34:28;;;;;;;6.07;1.83;;;13.90;99.90;;;;;;4955861;29;20031;-73
2020/12/06 10:36:55;;;;;;;3.85;1.70;;;13.80;99.90;;;;;;4956132;29;20102;-73
2020/12/06 10:39:22;;;;;;;3.95;2.28;;;13.80;99.90;;;;;;4955904;29;20031;-73
2020/12/06 10:41:49;;;;;;;4.90;2.00;;;13.70;99.90;;;;;;4939538;29;20034;-73
2020/12/06 10:44:15;;;;;;;2.78;1.90;;;13.70;99.90;;;;;;4957906;29;20028;-74
2020/12/06 10:46:41;;;;;;;6.50;2.10;;;13.60;99.90;;;;;;4958316;29;20030;-74
2020/12/06 10:49:07;;;;;;;2.28;1.55;;;13.70;99.90;;;;;;4958317;29;20074;-74
2020/12/06 10:51:32;;;;;;;4.28;2.17;;;13.70;99.90;;;;;;4957995;29;20114;-73
2020/12/06 10:53:59;;;;;;;3.65;1.80;;;13.60;99.90;;;;;;4956436;29;20624;-74
2020/12/06 10:56:26;;;;;;;3.15;1.70;;;13.60;99.90;;;;;;4956025;29;20034;-73
2020/12/06 10:58:55;;;;;;;3.55;2.00;;;13.50;99.90;;;;;;4956912;29;20024;-74
2020/12/06 11:01:28;;;;;;;5.75;2.13;;;13.60;99.90;;;;;;4953834;29;20528;-73
2020/12/06 11:03:54;;;;;;;2.97;2.20;;;13.60;99.90;;;;;;4955622;29;20031;-74
2020/12/06 11:06:24;;;;;;;4.07;2.30;;;13.60;99.90;;;;;;4956032;29;20435;-74
2020/12/06 11:08:51;;;;;;;2.58;1.67;;;13.60;99.90;;;;;;4955494;29;20027;-73
2020/12/06 11:11:19;;;;;;;3.75;3.17;;;13.50;99.90;;;;;;4955639;29;20054;-74
2020/12/06 11:13:45;;;;;;;2.95;1.45;;;13.50;99.90;;;;;;4956117;29;20023;-74
2020/12/06 11:16:15;;;;;;;8.55;2.00;;;13.60;99.90;;;;;;4939053;29;20213;-74
2020/12/06 11:18:41;;;;;;;15.77;2.80;;;13.60;99.90;;;;;;4956418;29;20422;-74
2020/12/06 11:21:07;;;;;;;25.23;3.45;;;13.70;99.90;;;;;;4956618;29;20028;-74
2020/12/06 11:23:33;;;;;;;9.10;5.00;;;13.80;99.90;;;;;;4938706;29;20031;-74
2020/12/06 11:25:59;;;;;;;16.77;6.32;;;13.80;99.90;;;;;;4934956;28;20490;-74
2020/12/06 11:28:24;;;;;;;11.30;3.67;;;13.70;99.90;;;;;;4959352;28;20074;-74
2020/12/06 11:30:50;;;;;;;38.85;7.22;;;13.60;99.90;;;;;;4956146;29;20466;-74
2020/12/06 11:33:16;;;;;;;16.98;3.88;;;13.40;99.90;;;;;;4954659;28;20046;-74
2020/12/06 11:35:42;;;;;;;10.35;4.32;;;13.40;99.90;;;;;;4956272;29;20020;-75
2020/12/06 11:38:09;;;;;;;22.20;5.50;;;13.40;99.90;;;;;;4955978;29;20032;-75
2020/12/06 11:40:35;;;;;;;21.90;6.22;;;13.40;99.90;;;;;;4954783;29;20445;-74
2020/12/06 11:43:01;;;;;;;21.75;7.70;;;13.40;99.90;;;;;;4956091;29;20087;-74
2020/12/06 11:45:27;;;;;;;27.40;7.05;;;13.40;99.90;;;;;;4954401;29;20121;-76
2020/12/06 11:47:53;;;;;;;17.67;7.72;;;13.40;99.90;;;;;;4956086;29;20368;-75
2020/12/06 11:50:19;;;;;;;12.23;5.18;;;13.50;99.90;;;;;;4956203;29;20039;-75
2020/12/06 11:52:45;;;;;;;16.95;4.80;;;13.60;99.90;;;;;;4955807;29;20442;-75
2020/12/06 11:55:11;;;;;;;16.98;5.43;;;13.60;99.90;;;;;;4954247;29;20521;-75
2020/12/06 11:57:37;;;;;;;20.13;5.35;;;13.70;99.90;;;;;;4956410;29;20047;-75
2020/12/06 12:00:07;;;;;;;19.10;6.22;;;13.70;99.90;;;;;;4938695;29;20061;-75
2020/12/06 12:02:34;;;;;;;19.67;4.43;;;13.80;99.90;;;;;;4955919;29;20057;-75
2020/12/06 12:05:00;;;;;;;22.90;5.40;;;14.00;99.90;;;;;;4958174;29;20074;-75
2020/12/06 12:07:26;;;;;;;20.65;5.15;;;14.10;99.90;;;;;;4952719;29;20039;-74
2020/12/06 12:09:52;;;;;;;17.60;6.30;;;14.30;99.90;;;;;;4960200;29;20035;-75
2020/12/06 12:12:18;;;;;;;21.08;4.65;;;14.40;99.90;;;;;;4955379;29;20031;-78
2020/12/06 12:14:44;;;;;;;20.13;4.32;;;14.40;99.90;;;;;;4955372;29;20028;-75
2020/12/06 12:17:10;;;;;;;15.75;5.35;;;14.50;99.90;;;;;;4955579;29;20027;-75
2020/12/06 12:19:36;;;;;;;19.50;6.30;;;14.40;99.90;;;;;;4955239;29;20031;-74
2020/12/06 12:22:02;;;;;;;24.48;5.95;;;14.30;99.90;;;;;;4954778;29;20367;-74
2020/12/06 12:24:28;;;;;;;16.23;4.82;;;14.30;99.90;;;;;;4955000;29;20087;-76
2020/12/06 12:27:00;;;;;;;24.58;5.03;;;14.20;99.90;;;;;;4955114;29;20039;-75
2020/12/06 12:29:27;;;;;;;18.08;5.43;;;14.20;99.90;;;;;;4955024;29;20082;-74
2020/12/06 12:31:53;;;;;;;20.88;5.43;;;14.30;99.90;;;;;;4955812;29;20023;-74
2020/12/06 12:34:19;;;;;;;19.50;6.03;;;14.30;99.90;;;;;;4950799;29;20031;-74
2020/12/06 12:36:45;;;;;;;26.55;5.72;;;14.20;99.90;;;;;;4970514;29;20050;-74
2020/12/06 12:39:13;;;;;;;27.75;5.72;;;14.10;99.90;;;;;;4960736;29;20509;-78
2020/12/06 12:41:39;;;;;;;18.50;6.15;;;14.10;99.90;;;;;;4955671;29;20027;-75